SEDDC ESSW-ESSV

Flight info

Callsign SEDDC
Flight time 0h 28m
Altitude 3500
Route /
Aircraft PA24/L-SDGRY/S

Departure

Time 2026-05-04 18:14
Airport Västervik Airport (ESSW)

Arrival

Time 2026-05-04 18:42
Airport Visby Airport (ESSV)
Time Latitude Longitude Altitude Speed Heading
2026-05-04 17:59 57.77749 16.52887 118 ft 0 kts 108°
2026-05-04 18:02 57.77736 16.52887 118 ft 1 kts 257°
2026-05-04 18:02 57.77736 16.52884 118 ft 0 kts 274°
2026-05-04 18:10 57.77734 16.52863 120 ft 5 kts 254°
2026-05-04 18:10 57.77724 16.52806 122 ft 0 kts 255°
2026-05-04 18:10 57.77723 16.52803 122 ft 0 kts 255°
2026-05-04 18:11 57.77707 16.52731 126 ft 12 kts 238°
2026-05-04 18:11 57.77588 16.52815 123 ft 26 kts 152°
2026-05-04 18:12 57.77495 16.52914 127 ft 7 kts 155°
2026-05-04 18:12 57.77482 16.52901 124 ft 5 kts 335°
2026-05-04 18:12 57.77491 16.52893 124 ft 0 kts 330°
2026-05-04 18:12 57.77491 16.52892 124 ft 0 kts 330°
2026-05-04 18:13 57.77962 16.52360 169 ft 73 kts 333°
2026-05-04 18:14 57.78448 16.51933 338 ft 77 kts 327°
2026-05-04 18:14 57.78921 16.51491 536 ft 76 kts 327°
2026-05-04 18:14 57.79346 16.50931 820 ft 73 kts 294°
2026-05-04 18:15 57.78607 16.50086 1252 ft 103 kts 150°
2026-05-04 18:15 57.77878 16.52985 1734 ft 137 kts 108°
2026-05-04 18:15 57.77590 16.54749 1948 ft 147 kts 106°
2026-05-04 18:16 57.77497 16.56657 2213 ft 148 kts 89°
2026-05-04 18:16 57.77490 16.58651 2358 ft 157 kts 89°
2026-05-04 18:16 57.77439 16.60718 2543 ft 159 kts 94°
2026-05-04 18:17 57.77216 16.64867 2781 ft 161 kts 94°
2026-05-04 18:17 57.77167 16.66956 2889 ft 162 kts 91°
2026-05-04 18:17 57.77115 16.71198 2996 ft 161 kts 90°
2026-05-04 18:18 57.77069 16.73329 2982 ft 164 kts 92°
2026-05-04 18:18 57.76956 16.75445 3031 ft 163 kts 94°
2026-05-04 18:18 57.76835 16.77560 3044 ft 163 kts 94°
2026-05-04 18:18 57.76715 16.79639 3071 ft 161 kts 95°
2026-05-04 18:19 57.76443 16.83764 3231 ft 156 kts 97°
2026-05-04 18:19 57.76279 16.85754 3346 ft 154 kts 98°
2026-05-04 18:19 57.76095 16.87787 3238 ft 166 kts 99°
2026-05-04 18:20 57.75935 16.89927 3168 ft 163 kts 93°
2026-05-04 18:20 57.75914 16.92029 3143 ft 158 kts 90°
2026-05-04 18:20 57.75800 16.93985 3257 ft 146 kts 97°
2026-05-04 18:20 57.75663 16.95853 3282 ft 145 kts 97°
2026-05-04 18:21 57.75528 16.97692 3336 ft 141 kts 97°
2026-05-04 18:21 57.75399 16.99513 3369 ft 141 kts 97°
2026-05-04 18:21 57.75278 17.01330 3365 ft 138 kts 95°
2026-05-04 18:21 57.75194 17.03099 3328 ft 135 kts 93°
2026-05-04 18:22 57.75136 17.04836 3285 ft 135 kts 92°
2026-05-04 18:22 57.75075 17.06567 3251 ft 133 kts 95°
2026-05-04 18:22 57.74937 17.08286 3202 ft 133 kts 97°
2026-05-04 18:22 57.74835 17.09981 3200 ft 130 kts 95°
2026-05-04 18:23 57.74748 17.11652 3201 ft 128 kts 95°
2026-05-04 18:23 57.74662 17.13299 3203 ft 126 kts 95°
2026-05-04 18:23 57.74578 17.14916 3205 ft 124 kts 95°
2026-05-04 18:23 57.74489 17.16519 3206 ft 123 kts 95°
2026-05-04 18:24 57.74400 17.18110 3202 ft 123 kts 95°
2026-05-04 18:24 57.74314 17.19696 3205 ft 122 kts 94°
2026-05-04 18:24 57.74228 17.21258 3204 ft 122 kts 95°
2026-05-04 18:24 57.74141 17.22846 3205 ft 123 kts 94°
2026-05-04 18:25 57.74054 17.24445 3208 ft 123 kts 94°
2026-05-04 18:25 57.73972 17.26041 3208 ft 123 kts 95°
2026-05-04 18:25 57.73890 17.27638 3208 ft 123 kts 94°
2026-05-04 18:25 57.73806 17.29235 3208 ft 124 kts 94°
2026-05-04 18:26 57.73719 17.30838 3205 ft 124 kts 94°
2026-05-04 18:26 57.73631 17.32440 3206 ft 124 kts 94°
2026-05-04 18:26 57.73544 17.34043 3205 ft 124 kts 94°
2026-05-04 18:26 57.73460 17.35627 3206 ft 124 kts 94°
2026-05-04 18:27 57.73380 17.37245 3210 ft 123 kts 94°
2026-05-04 18:27 57.73306 17.38822 3209 ft 123 kts 94°
2026-05-04 18:27 57.73175 17.40400 3210 ft 123 kts 103°
2026-05-04 18:27 57.72972 17.41958 3187 ft 125 kts 104°
2026-05-04 18:28 57.72761 17.43510 3201 ft 123 kts 105°
2026-05-04 18:28 57.72519 17.45039 3197 ft 124 kts 107°
2026-05-04 18:28 57.72279 17.46579 3205 ft 123 kts 107°
2026-05-04 18:28 57.72044 17.48104 3213 ft 122 kts 106°
2026-05-04 18:29 57.71814 17.49624 3215 ft 121 kts 106°
2026-05-04 18:29 57.71659 17.51167 3221 ft 120 kts 87°
2026-05-04 18:29 57.71647 17.52737 3217 ft 121 kts 90°
2026-05-04 18:29 57.71601 17.54317 3218 ft 122 kts 93°
2026-05-04 18:30 57.71423 17.57171 3219 ft 123 kts 97°
2026-05-04 18:30 57.71301 17.58757 3220 ft 123 kts 97°
2026-05-04 18:30 57.71180 17.60343 3218 ft 123 kts 97°
2026-05-04 18:31 57.71059 17.61897 3220 ft 122 kts 97°
2026-05-04 18:31 57.70938 17.63461 3220 ft 121 kts 97°
2026-05-04 18:31 57.70819 17.65029 3220 ft 122 kts 97°
2026-05-04 18:31 57.70701 17.66609 3220 ft 123 kts 97°
2026-05-04 18:32 57.70582 17.68192 3218 ft 123 kts 97°
2026-05-04 18:32 57.70493 17.69779 3222 ft 123 kts 85°
2026-05-04 18:32 57.70573 17.71372 3224 ft 126 kts 80°
2026-05-04 18:32 57.70672 17.73062 3256 ft 134 kts 80°
2026-05-04 18:33 57.70779 17.74849 3250 ft 142 kts 80°
2026-05-04 18:33 57.70895 17.76724 3244 ft 147 kts 80°
2026-05-04 18:33 57.71014 17.78620 3246 ft 150 kts 80°
2026-05-04 18:33 57.71134 17.80539 3244 ft 147 kts 80°
2026-05-04 18:34 57.71251 17.82440 3238 ft 146 kts 80°
2026-05-04 18:34 57.71364 17.84329 3236 ft 146 kts 81°
2026-05-04 18:34 57.71424 17.86223 3235 ft 145 kts 86°
2026-05-04 18:34 57.71419 17.88103 3234 ft 144 kts 90°
2026-05-04 18:35 57.71352 17.89976 3234 ft 144 kts 94°
2026-05-04 18:35 57.71221 17.91834 3233 ft 144 kts 98°
2026-05-04 18:35 57.71022 17.93675 3232 ft 145 kts 102°
2026-05-04 18:35 57.70803 17.95510 3234 ft 145 kts 91°
2026-05-04 18:36 57.70894 17.97375 3234 ft 144 kts 83°
2026-05-04 18:36 57.70952 17.99247 3231 ft 145 kts 83°
2026-05-04 18:36 57.71016 18.01125 3231 ft 144 kts 83°
2026-05-04 18:36 57.71075 18.02970 3230 ft 143 kts 83°
2026-05-04 18:37 57.71134 18.04846 3229 ft 145 kts 83°
2026-05-04 18:37 57.71194 18.06743 3234 ft 149 kts 83°
2026-05-04 18:37 57.71265 18.08703 3242 ft 153 kts 83°
2026-05-04 18:37 57.71343 18.10701 3247 ft 154 kts 83°
2026-05-04 18:38 57.71423 18.12675 3235 ft 156 kts 82°
2026-05-04 18:38 57.71556 18.14771 3104 ft 164 kts 80°
2026-05-04 18:38 57.71704 18.16855 3116 ft 162 kts 79°
2026-05-04 18:38 57.71850 18.18860 3134 ft 152 kts 78°
2026-05-04 18:39 57.71997 18.20752 2855 ft 145 kts 78°
2026-05-04 18:39 57.72150 18.22605 2653 ft 148 kts 77°
2026-05-04 18:39 57.72322 18.24615 2529 ft 161 kts 77°
2026-05-04 18:39 57.72385 18.26709 2590 ft 159 kts 94°
2026-05-04 18:40 57.72131 18.28743 2287 ft 166 kts 105°
2026-05-04 18:40 57.71794 18.30812 2154 ft 164 kts 108°
2026-05-04 18:40 57.71382 18.32788 1984 ft 161 kts 118°
2026-05-04 18:40 57.70760 18.34350 1553 ft 137 kts 136°
2026-05-04 18:41 57.70094 18.35441 1073 ft 120 kts 153°
2026-05-04 18:41 57.69382 18.36068 696 ft 106 kts 169°
2026-05-04 18:41 57.68708 18.36243 454 ft 96 kts 191°
2026-05-04 18:41 57.68090 18.35941 357 ft 87 kts 204°
2026-05-04 18:42 57.67526 18.35514 265 ft 88 kts 203°
2026-05-04 18:42 57.66981 18.35128 162 ft 74 kts 203°
2026-05-04 18:42 57.66604 18.34856 149 ft 43 kts 200°
2026-05-04 18:42 57.66390 18.34700 151 ft 31 kts 200°
2026-05-04 18:43 57.66235 18.34589 151 ft 21 kts 201°
2026-05-04 18:43 57.66031 18.34422 151 ft 38 kts 206°
2026-05-04 18:43 57.65984 18.34246 153 ft 8 kts 283°
2026-05-04 18:43 57.66003 18.34148 153 ft 14 kts 297°
2026-05-04 18:44 57.65999 18.34004 153 ft 15 kts 203°
2026-05-04 18:44 57.65966 18.33977 153 ft 11 kts 205°
2026-05-04 18:44 57.65922 18.33877 153 ft 8 kts 260°
2026-05-04 18:44 57.65904 18.33867 153 ft 0 kts 97°